sensor_id;sensor_type;location;lat;lon;timestamp;P1;durP1;ratioP1;P2;durP2;ratioP2
635;SDS011;302;50.206;8.196;2023-02-15T00:01:30;32.97;;;24.00;;
635;SDS011;302;50.206;8.196;2023-02-15T00:03:56;34.67;;;23.93;;
635;SDS011;302;50.206;8.196;2023-02-15T00:06:21;38.13;;;25.57;;
635;SDS011;302;50.206;8.196;2023-02-15T00:08:46;33.97;;;25.00;;
635;SDS011;302;50.206;8.196;2023-02-15T00:11:12;34.67;;;24.57;;
635;SDS011;302;50.206;8.196;2023-02-15T00:13:38;33.25;;;24.58;;
635;SDS011;302;50.206;8.196;2023-02-15T00:16:06;38.45;;;26.55;;
635;SDS011;302;50.206;8.196;2023-02-15T00:18:32;37.58;;;27.50;;
635;SDS011;302;50.206;8.196;2023-02-15T00:20:57;35.93;;;25.17;;
635;SDS011;302;50.206;8.196;2023-02-15T00:23:22;40.67;;;25.50;;
635;SDS011;302;50.206;8.196;2023-02-15T00:25:48;36.20;;;25.57;;
635;SDS011;302;50.206;8.196;2023-02-15T00:28:13;35.27;;;24.03;;
635;SDS011;302;50.206;8.196;2023-02-15T00:30:38;33.70;;;24.13;;
635;SDS011;302;50.206;8.196;2023-02-15T00:33:03;37.65;;;25.27;;
635;SDS011;302;50.206;8.196;2023-02-15T00:35:28;34.87;;;24.50;;
635;SDS011;302;50.206;8.196;2023-02-15T00:37:54;42.60;;;26.50;;
635;SDS011;302;50.206;8.196;2023-02-15T00:40:20;38.78;;;24.50;;
635;SDS011;302;50.206;8.196;2023-02-15T00:42:45;42.77;;;27.00;;
635;SDS011;302;50.206;8.196;2023-02-15T00:45:10;41.97;;;26.60;;
635;SDS011;302;50.206;8.196;2023-02-15T00:47:35;37.67;;;25.42;;
635;SDS011;302;50.206;8.196;2023-02-15T00:50:01;38.43;;;24.83;;
635;SDS011;302;50.206;8.196;2023-02-15T00:52:28;37.72;;;25.02;;
635;SDS011;302;50.206;8.196;2023-02-15T00:54:53;32.50;;;24.60;;
635;SDS011;302;50.206;8.196;2023-02-15T00:57:18;34.13;;;24.60;;
635;SDS011;302;50.206;8.196;2023-02-15T00:59:43;31.80;;;23.83;;
635;SDS011;302;50.206;8.196;2023-02-15T01:02:08;35.05;;;25.38;;
635;SDS011;302;50.206;8.196;2023-02-15T01:04:33;38.80;;;25.30;;
635;SDS011;302;50.206;8.196;2023-02-15T01:06:59;30.80;;;24.17;;
635;SDS011;302;50.206;8.196;2023-02-15T01:09:24;32.77;;;23.87;;
635;SDS011;302;50.206;8.196;2023-02-15T01:11:49;33.33;;;24.40;;
635;SDS011;302;50.206;8.196;2023-02-15T01:14:14;24.52;;;20.60;;
635;SDS011;302;50.206;8.196;2023-02-15T01:16:39;26.20;;;19.90;;
635;SDS011;302;50.206;8.196;2023-02-15T01:19:05;25.07;;;18.80;;
635;SDS011;302;50.206;8.196;2023-02-15T01:21:31;23.08;;;18.45;;
635;SDS011;302;50.206;8.196;2023-02-15T01:23:59;22.30;;;17.48;;
635;SDS011;302;50.206;8.196;2023-02-15T01:26:24;22.00;;;17.57;;
635;SDS011;302;50.206;8.196;2023-02-15T01:28:49;22.17;;;18.10;;
635;SDS011;302;50.206;8.196;2023-02-15T01:31:15;20.42;;;16.55;;
635;SDS011;302;50.206;8.196;2023-02-15T01:33:40;22.30;;;18.02;;
635;SDS011;302;50.206;8.196;2023-02-15T01:36:05;18.77;;;16.30;;
635;SDS011;302;50.206;8.196;2023-02-15T01:38:31;20.23;;;17.30;;
635;SDS011;302;50.206;8.196;2023-02-15T01:40:56;24.03;;;19.23;;
635;SDS011;302;50.206;8.196;2023-02-15T01:43:45;25.95;;;19.48;;
635;SDS011;302;50.206;8.196;2023-02-15T01:46:11;23.42;;;19.33;;
635;SDS011;302;50.206;8.196;2023-02-15T01:48:37;25.58;;;19.65;;
635;SDS011;302;50.206;8.196;2023-02-15T01:51:05;26.20;;;19.70;;
635;SDS011;302;50.206;8.196;2023-02-15T01:53:38;24.20;;;19.70;;
635;SDS011;302;50.206;8.196;2023-02-15T01:56:16;24.70;;;18.50;;
635;SDS011;302;50.206;8.196;2023-02-15T01:58:42;29.40;;;21.00;;
635;SDS011;302;50.206;8.196;2023-02-15T02:01:07;25.63;;;20.37;;
635;SDS011;302;50.206;8.196;2023-02-15T02:03:56;24.23;;;18.80;;
635;SDS011;302;50.206;8.196;2023-02-15T02:06:23;31.05;;;21.42;;
635;SDS011;302;50.206;8.196;2023-02-15T02:08:49;28.48;;;20.30;;
635;SDS011;302;50.206;8.196;2023-02-15T02:11:14;26.70;;;21.50;;
635;SDS011;302;50.206;8.196;2023-02-15T02:13:40;28.20;;;21.17;;
635;SDS011;302;50.206;8.196;2023-02-15T02:16:14;27.83;;;22.00;;
635;SDS011;302;50.206;8.196;2023-02-15T02:21:17;27.05;;;20.45;;
635;SDS011;302;50.206;8.196;2023-02-15T02:23:56;29.08;;;21.23;;
635;SDS011;302;50.206;8.196;2023-02-15T02:26:47;30.52;;;22.35;;
635;SDS011;302;50.206;8.196;2023-02-15T02:29:25;32.85;;;23.33;;
635;SDS011;302;50.206;8.196;2023-02-15T02:36:54;31.35;;;22.75;;
635;SDS011;302;50.206;8.196;2023-02-15T02:42:06;33.55;;;22.67;;
635;SDS011;302;50.206;8.196;2023-02-15T02:44:38;31.20;;;22.05;;
635;SDS011;302;50.206;8.196;2023-02-15T02:47:16;33.05;;;22.65;;
635;SDS011;302;50.206;8.196;2023-02-15T02:49:43;30.83;;;22.88;;
635;SDS011;302;50.206;8.196;2023-02-15T02:54:53;31.02;;;23.00;;
635;SDS011;302;50.206;8.196;2023-02-15T02:57:19;29.20;;;21.98;;
635;SDS011;302;50.206;8.196;2023-02-15T02:59:47;38.00;;;23.33;;
635;SDS011;302;50.206;8.196;2023-02-15T03:02:15;42.25;;;24.95;;
635;SDS011;302;50.206;8.196;2023-02-15T03:04:45;45.10;;;23.92;;
635;SDS011;302;50.206;8.196;2023-02-15T03:07:12;39.92;;;24.02;;
635;SDS011;302;50.206;8.196;2023-02-15T03:09:40;38.20;;;24.33;;
635;SDS011;302;50.206;8.196;2023-02-15T03:12:10;45.70;;;25.27;;
635;SDS011;302;50.206;8.196;2023-02-15T03:14:36;39.22;;;24.65;;
635;SDS011;302;50.206;8.196;2023-02-15T03:17:01;49.47;;;27.00;;
635;SDS011;302;50.206;8.196;2023-02-15T03:19:28;40.63;;;25.35;;
635;SDS011;302;50.206;8.196;2023-02-15T03:21:56;49.95;;;26.88;;
635;SDS011;302;50.206;8.196;2023-02-15T03:24:43;42.95;;;26.35;;
635;SDS011;302;50.206;8.196;2023-02-15T03:27:14;37.85;;;24.75;;
635;SDS011;302;50.206;8.196;2023-02-15T03:29:42;37.95;;;24.63;;
635;SDS011;302;50.206;8.196;2023-02-15T03:32:08;38.30;;;25.17;;
635;SDS011;302;50.206;8.196;2023-02-15T03:34:34;37.60;;;26.45;;
635;SDS011;302;50.206;8.196;2023-02-15T03:37:02;34.47;;;24.67;;
635;SDS011;302;50.206;8.196;2023-02-15T03:39:34;35.22;;;25.52;;
635;SDS011;302;50.206;8.196;2023-02-15T03:42:16;35.25;;;23.92;;
635;SDS011;302;50.206;8.196;2023-02-15T03:44:46;31.10;;;22.65;;
635;SDS011;302;50.206;8.196;2023-02-15T03:47:17;36.42;;;23.50;;
635;SDS011;302;50.206;8.196;2023-02-15T03:52:11;37.55;;;25.15;;
635;SDS011;302;50.206;8.196;2023-02-15T03:54:38;30.95;;;22.02;;
635;SDS011;302;50.206;8.196;2023-02-15T03:57:07;30.60;;;22.52;;
635;SDS011;302;50.206;8.196;2023-02-15T03:59:52;30.83;;;22.17;;
635;SDS011;302;50.206;8.196;2023-02-15T04:02:42;29.63;;;20.63;;
635;SDS011;302;50.206;8.196;2023-02-15T04:05:09;29.20;;;22.15;;
635;SDS011;302;50.206;8.196;2023-02-15T04:07:34;30.80;;;21.08;;
635;SDS011;302;50.206;8.196;2023-02-15T04:09:59;29.20;;;21.60;;
635;SDS011;302;50.206;8.196;2023-02-15T04:12:43;31.15;;;22.27;;
635;SDS011;302;50.206;8.196;2023-02-15T04:15:11;31.20;;;21.90;;
635;SDS011;302;50.206;8.196;2023-02-15T04:17:55;31.98;;;22.27;;
635;SDS011;302;50.206;8.196;2023-02-15T04:20:20;27.90;;;20.98;;
635;SDS011;302;50.206;8.196;2023-02-15T04:23:05;27.30;;;19.98;;
635;SDS011;302;50.206;8.196;2023-02-15T04:25:49;27.13;;;21.27;;
635;SDS011;302;50.206;8.196;2023-02-15T04:28:14;31.52;;;22.75;;
635;SDS011;302;50.206;8.196;2023-02-15T04:30:39;33.83;;;23.13;;
635;SDS011;302;50.206;8.196;2023-02-15T04:33:04;35.33;;;23.87;;
635;SDS011;302;50.206;8.196;2023-02-15T04:35:30;40.60;;;25.73;;
635;SDS011;302;50.206;8.196;2023-02-15T04:37:56;35.88;;;24.20;;
635;SDS011;302;50.206;8.196;2023-02-15T04:40:21;41.37;;;25.30;;
635;SDS011;302;50.206;8.196;2023-02-15T04:42:47;43.17;;;26.92;;
635;SDS011;302;50.206;8.196;2023-02-15T04:45:13;40.63;;;26.10;;
635;SDS011;302;50.206;8.196;2023-02-15T04:47:38;72.10;;;29.77;;
635;SDS011;302;50.206;8.196;2023-02-15T04:50:03;46.35;;;26.60;;
635;SDS011;302;50.206;8.196;2023-02-15T04:52:29;40.30;;;25.13;;
635;SDS011;302;50.206;8.196;2023-02-15T04:54:54;45.90;;;25.37;;
635;SDS011;302;50.206;8.196;2023-02-15T04:57:19;34.50;;;23.10;;
635;SDS011;302;50.206;8.196;2023-02-15T04:59:44;44.50;;;25.60;;
635;SDS011;302;50.206;8.196;2023-02-15T05:02:09;44.77;;;26.13;;
635;SDS011;302;50.206;8.196;2023-02-15T05:04:35;42.10;;;25.00;;
635;SDS011;302;50.206;8.196;2023-02-15T05:07:00;40.22;;;25.52;;
635;SDS011;302;50.206;8.196;2023-02-15T05:09:25;43.47;;;25.20;;
635;SDS011;302;50.206;8.196;2023-02-15T05:11:50;44.93;;;24.87;;
635;SDS011;302;50.206;8.196;2023-02-15T05:14:15;44.40;;;25.37;;
635;SDS011;302;50.206;8.196;2023-02-15T05:16:40;40.38;;;25.67;;
635;SDS011;302;50.206;8.196;2023-02-15T05:19:05;47.13;;;26.20;;
635;SDS011;302;50.206;8.196;2023-02-15T05:21:31;48.57;;;25.70;;
635;SDS011;302;50.206;8.196;2023-02-15T05:23:57;42.35;;;25.58;;
635;SDS011;302;50.206;8.196;2023-02-15T05:26:23;44.80;;;25.20;;
635;SDS011;302;50.206;8.196;2023-02-15T05:29:06;41.88;;;23.92;;
635;SDS011;302;50.206;8.196;2023-02-15T05:31:32;45.20;;;25.07;;
635;SDS011;302;50.206;8.196;2023-02-15T05:33:57;49.23;;;25.93;;
635;SDS011;302;50.206;8.196;2023-02-15T05:36:22;50.33;;;26.03;;
635;SDS011;302;50.206;8.196;2023-02-15T05:38:48;48.77;;;26.90;;
635;SDS011;302;50.206;8.196;2023-02-15T05:41:13;48.17;;;26.05;;
635;SDS011;302;50.206;8.196;2023-02-15T05:43:38;46.47;;;25.90;;
635;SDS011;302;50.206;8.196;2023-02-15T05:46:04;44.20;;;32.50;;
635;SDS011;302;50.206;8.196;2023-02-15T05:48:29;57.23;;;40.43;;
635;SDS011;302;50.206;8.196;2023-02-15T05:50:58;40.33;;;25.67;;
635;SDS011;302;50.206;8.196;2023-02-15T05:53:24;42.25;;;25.77;;
635;SDS011;302;50.206;8.196;2023-02-15T05:55:49;53.70;;;29.10;;
635;SDS011;302;50.206;8.196;2023-02-15T05:58:14;48.90;;;25.33;;
635;SDS011;302;50.206;8.196;2023-02-15T06:00:40;49.10;;;25.57;;
635;SDS011;302;50.206;8.196;2023-02-15T06:03:05;43.03;;;24.90;;
635;SDS011;302;50.206;8.196;2023-02-15T06:05:30;44.53;;;24.17;;
635;SDS011;302;50.206;8.196;2023-02-15T06:07:55;56.63;;;26.70;;
635;SDS011;302;50.206;8.196;2023-02-15T06:10:20;48.03;;;25.80;;
635;SDS011;302;50.206;8.196;2023-02-15T06:12:45;49.33;;;23.70;;
635;SDS011;302;50.206;8.196;2023-02-15T06:15:11;43.40;;;25.03;;
635;SDS011;302;50.206;8.196;2023-02-15T06:17:36;68.00;;;27.33;;
635;SDS011;302;50.206;8.196;2023-02-15T06:20:01;43.50;;;22.50;;
635;SDS011;302;50.206;8.196;2023-02-15T06:22:26;44.97;;;24.30;;
635;SDS011;302;50.206;8.196;2023-02-15T06:24:51;52.40;;;24.50;;
635;SDS011;302;50.206;8.196;2023-02-15T06:27:16;49.17;;;23.52;;
635;SDS011;302;50.206;8.196;2023-02-15T06:29:42;43.83;;;22.90;;
635;SDS011;302;50.206;8.196;2023-02-15T06:32:07;43.22;;;24.60;;
635;SDS011;302;50.206;8.196;2023-02-15T06:34:32;47.97;;;24.30;;
635;SDS011;302;50.206;8.196;2023-02-15T06:36:57;44.00;;;26.10;;
635;SDS011;302;50.206;8.196;2023-02-15T06:39:22;61.23;;;29.10;;
635;SDS011;302;50.206;8.196;2023-02-15T06:41:48;49.67;;;25.93;;
635;SDS011;302;50.206;8.196;2023-02-15T06:44:13;48.87;;;27.27;;
635;SDS011;302;50.206;8.196;2023-02-15T06:46:38;60.83;;;26.70;;
635;SDS011;302;50.206;8.196;2023-02-15T06:49:03;53.67;;;26.57;;
635;SDS011;302;50.206;8.196;2023-02-15T06:51:28;61.33;;;28.70;;
635;SDS011;302;50.206;8.196;2023-02-15T06:53:54;54.87;;;26.07;;
635;SDS011;302;50.206;8.196;2023-02-15T06:56:19;58.93;;;26.70;;
635;SDS011;302;50.206;8.196;2023-02-15T06:58:44;66.50;;;28.17;;
635;SDS011;302;50.206;8.196;2023-02-15T07:01:10;86.68;;;31.02;;
635;SDS011;302;50.206;8.196;2023-02-15T07:03:36;54.00;;;26.07;;
635;SDS011;302;50.206;8.196;2023-02-15T07:06:02;49.10;;;25.90;;
635;SDS011;302;50.206;8.196;2023-02-15T07:08:28;63.58;;;28.65;;
635;SDS011;302;50.206;8.196;2023-02-15T07:10:54;54.37;;;27.30;;
635;SDS011;302;50.206;8.196;2023-02-15T07:13:19;50.67;;;27.05;;
635;SDS011;302;50.206;8.196;2023-02-15T07:15:45;47.70;;;25.97;;
635;SDS011;302;50.206;8.196;2023-02-15T07:18:10;51.85;;;25.50;;
635;SDS011;302;50.206;8.196;2023-02-15T07:20:36;49.33;;;25.80;;
635;SDS011;302;50.206;8.196;2023-02-15T07:23:01;44.20;;;26.07;;
635;SDS011;302;50.206;8.196;2023-02-15T07:25:27;47.03;;;26.67;;
635;SDS011;302;50.206;8.196;2023-02-15T07:27:58;51.20;;;28.10;;
635;SDS011;302;50.206;8.196;2023-02-15T07:30:23;45.22;;;27.17;;
635;SDS011;302;50.206;8.196;2023-02-15T07:32:49;53.20;;;27.20;;
635;SDS011;302;50.206;8.196;2023-02-15T07:35:33;52.25;;;27.33;;
635;SDS011;302;50.206;8.196;2023-02-15T07:37:58;49.17;;;28.60;;
635;SDS011;302;50.206;8.196;2023-02-15T07:40:23;50.27;;;25.87;;
635;SDS011;302;50.206;8.196;2023-02-15T07:42:49;55.58;;;29.08;;
635;SDS011;302;50.206;8.196;2023-02-15T07:45:14;53.60;;;27.50;;
635;SDS011;302;50.206;8.196;2023-02-15T07:47:39;51.83;;;27.47;;
635;SDS011;302;50.206;8.196;2023-02-15T07:50:04;48.40;;;28.20;;
635;SDS011;302;50.206;8.196;2023-02-15T07:52:30;50.23;;;27.37;;
635;SDS011;302;50.206;8.196;2023-02-15T07:54:55;44.85;;;25.17;;
635;SDS011;302;50.206;8.196;2023-02-15T07:57:20;47.40;;;25.55;;
635;SDS011;302;50.206;8.196;2023-02-15T07:59:45;39.83;;;23.67;;
635;SDS011;302;50.206;8.196;2023-02-15T08:02:10;42.47;;;26.75;;
635;SDS011;302;50.206;8.196;2023-02-15T08:04:35;37.10;;;25.30;;
635;SDS011;302;50.206;8.196;2023-02-15T08:07:01;52.27;;;23.00;;
635;SDS011;302;50.206;8.196;2023-02-15T08:09:26;42.22;;;23.55;;
635;SDS011;302;50.206;8.196;2023-02-15T08:11:51;38.17;;;23.75;;
635;SDS011;302;50.206;8.196;2023-02-15T08:14:17;49.07;;;23.33;;
635;SDS011;302;50.206;8.196;2023-02-15T08:21:34;37.53;;;22.40;;
635;SDS011;302;50.206;8.196;2023-02-15T08:23:59;42.33;;;22.30;;
635;SDS011;302;50.206;8.196;2023-02-15T08:26:24;34.87;;;22.73;;
635;SDS011;302;50.206;8.196;2023-02-15T08:28:50;32.23;;;20.67;;
635;SDS011;302;50.206;8.196;2023-02-15T08:31:16;29.10;;;21.47;;
635;SDS011;302;50.206;8.196;2023-02-15T08:33:42;34.30;;;21.47;;
635;SDS011;302;50.206;8.196;2023-02-15T08:36:09;30.00;;;20.45;;
635;SDS011;302;50.206;8.196;2023-02-15T08:38:35;34.15;;;21.83;;
635;SDS011;302;50.206;8.196;2023-02-15T08:41:08;27.30;;;20.43;;
635;SDS011;302;50.206;8.196;2023-02-15T08:43:33;22.13;;;16.50;;
635;SDS011;302;50.206;8.196;2023-02-15T08:45:58;25.83;;;18.55;;
635;SDS011;302;50.206;8.196;2023-02-15T08:48:24;24.83;;;18.03;;
635;SDS011;302;50.206;8.196;2023-02-15T08:50:49;23.70;;;17.83;;
635;SDS011;302;50.206;8.196;2023-02-15T08:53:14;23.57;;;17.23;;
635;SDS011;302;50.206;8.196;2023-02-15T08:55:39;20.80;;;17.00;;
635;SDS011;302;50.206;8.196;2023-02-15T08:58:05;21.70;;;17.73;;
635;SDS011;302;50.206;8.196;2023-02-15T09:00:30;23.77;;;17.83;;
635;SDS011;302;50.206;8.196;2023-02-15T09:02:56;21.63;;;16.40;;
635;SDS011;302;50.206;8.196;2023-02-15T09:05:21;24.30;;;17.13;;
635;SDS011;302;50.206;8.196;2023-02-15T09:07:46;21.75;;;16.10;;
635;SDS011;302;50.206;8.196;2023-02-15T09:10:11;22.40;;;16.08;;
635;SDS011;302;50.206;8.196;2023-02-15T09:12:36;21.33;;;16.20;;
635;SDS011;302;50.206;8.196;2023-02-15T09:15:02;21.73;;;17.70;;
635;SDS011;302;50.206;8.196;2023-02-15T09:17:27;18.37;;;14.90;;
635;SDS011;302;50.206;8.196;2023-02-15T09:19:52;18.43;;;14.80;;
635;SDS011;302;50.206;8.196;2023-02-15T09:22:17;17.47;;;14.87;;
635;SDS011;302;50.206;8.196;2023-02-15T09:24:42;17.97;;;15.43;;
635;SDS011;302;50.206;8.196;2023-02-15T09:27:08;18.10;;;14.50;;
635;SDS011;302;50.206;8.196;2023-02-15T09:29:33;19.00;;;15.90;;
635;SDS011;302;50.206;8.196;2023-02-15T09:31:58;20.23;;;14.40;;
635;SDS011;302;50.206;8.196;2023-02-15T09:34:23;19.60;;;15.47;;
635;SDS011;302;50.206;8.196;2023-02-15T09:36:49;18.13;;;15.80;;
635;SDS011;302;50.206;8.196;2023-02-15T09:39:18;21.00;;;15.10;;
635;SDS011;302;50.206;8.196;2023-02-15T09:44:32;16.60;;;14.80;;
635;SDS011;302;50.206;8.196;2023-02-15T09:47:06;18.38;;;15.07;;
635;SDS011;302;50.206;8.196;2023-02-15T10:00:00;20.90;;;15.77;;
635;SDS011;302;50.206;8.196;2023-02-15T10:02:31;20.17;;;16.33;;
635;SDS011;302;50.206;8.196;2023-02-15T10:07:35;19.80;;;16.48;;
635;SDS011;302;50.206;8.196;2023-02-15T10:10:09;20.38;;;16.10;;
635;SDS011;302;50.206;8.196;2023-02-15T10:12:46;20.33;;;16.38;;
635;SDS011;302;50.206;8.196;2023-02-15T10:15:22;19.70;;;16.25;;
635;SDS011;302;50.206;8.196;2023-02-15T10:18:04;18.33;;;15.10;;
635;SDS011;302;50.206;8.196;2023-02-15T10:20:35;18.13;;;15.52;;
635;SDS011;302;50.206;8.196;2023-02-15T10:25:41;17.75;;;15.00;;
635;SDS011;302;50.206;8.196;2023-02-15T10:30:46;22.02;;;15.98;;
635;SDS011;302;50.206;8.196;2023-02-15T10:33:18;18.77;;;16.25;;
635;SDS011;302;50.206;8.196;2023-02-15T10:35:51;17.17;;;14.70;;
635;SDS011;302;50.206;8.196;2023-02-15T10:38:31;18.02;;;14.93;;
635;SDS011;302;50.206;8.196;2023-02-15T10:41:02;17.73;;;14.30;;
635;SDS011;302;50.206;8.196;2023-02-15T10:46:24;19.88;;;14.38;;
635;SDS011;302;50.206;8.196;2023-02-15T10:51:39;16.02;;;13.55;;
635;SDS011;302;50.206;8.196;2023-02-15T10:54:09;19.63;;;15.05;;
635;SDS011;302;50.206;8.196;2023-02-15T11:02:04;20.23;;;15.43;;
635;SDS011;302;50.206;8.196;2023-02-15T11:07:32;21.33;;;15.30;;
635;SDS011;302;50.206;8.196;2023-02-15T11:12:49;18.27;;;15.07;;
635;SDS011;302;50.206;8.196;2023-02-15T11:17:45;17.45;;;13.70;;
635;SDS011;302;50.206;8.196;2023-02-15T11:22:49;17.02;;;13.63;;
635;SDS011;302;50.206;8.196;2023-02-15T11:25:31;15.82;;;13.23;;
635;SDS011;302;50.206;8.196;2023-02-15T11:27:57;15.55;;;12.55;;
635;SDS011;302;50.206;8.196;2023-02-15T11:30:24;14.00;;;12.07;;
635;SDS011;302;50.206;8.196;2023-02-15T11:32:52;15.50;;;12.90;;
635;SDS011;302;50.206;8.196;2023-02-15T11:38:01;15.27;;;13.32;;
635;SDS011;302;50.206;8.196;2023-02-15T11:40:36;15.23;;;12.32;;
635;SDS011;302;50.206;8.196;2023-02-15T11:43:04;17.75;;;13.60;;
635;SDS011;302;50.206;8.196;2023-02-15T11:45:31;16.58;;;13.20;;
635;SDS011;302;50.206;8.196;2023-02-15T11:47:57;15.40;;;12.93;;
635;SDS011;302;50.206;8.196;2023-02-15T11:50:23;17.17;;;13.15;;
635;SDS011;302;50.206;8.196;2023-02-15T11:52:49;16.83;;;14.10;;
635;SDS011;302;50.206;8.196;2023-02-15T11:55:18;16.10;;;14.15;;
635;SDS011;302;50.206;8.196;2023-02-15T11:57:45;17.02;;;13.85;;
635;SDS011;302;50.206;8.196;2023-02-15T12:00:16;16.20;;;14.50;;
635;SDS011;302;50.206;8.196;2023-02-15T12:02:45;17.55;;;14.93;;
635;SDS011;302;50.206;8.196;2023-02-15T12:05:13;20.55;;;16.10;;
635;SDS011;302;50.206;8.196;2023-02-15T12:08:00;19.50;;;15.77;;
635;SDS011;302;50.206;8.196;2023-02-15T12:10:29;18.63;;;14.63;;
635;SDS011;302;50.206;8.196;2023-02-15T12:13:12;17.30;;;14.90;;
635;SDS011;302;50.206;8.196;2023-02-15T12:15:38;18.30;;;16.15;;
635;SDS011;302;50.206;8.196;2023-02-15T12:18:15;18.00;;;15.60;;
635;SDS011;302;50.206;8.196;2023-02-15T12:20:42;19.55;;;15.77;;
635;SDS011;302;50.206;8.196;2023-02-15T12:23:12;20.80;;;16.60;;
635;SDS011;302;50.206;8.196;2023-02-15T12:25:53;19.85;;;16.65;;
635;SDS011;302;50.206;8.196;2023-02-15T12:28:35;21.02;;;16.38;;
635;SDS011;302;50.206;8.196;2023-02-15T12:31:02;20.00;;;17.35;;
635;SDS011;302;50.206;8.196;2023-02-15T12:33:35;18.02;;;16.13;;
635;SDS011;302;50.206;8.196;2023-02-15T12:38:29;21.70;;;17.35;;
635;SDS011;302;50.206;8.196;2023-02-15T12:41:01;19.80;;;16.90;;
635;SDS011;302;50.206;8.196;2023-02-15T12:43:30;22.73;;;18.52;;
635;SDS011;302;50.206;8.196;2023-02-15T12:46:13;20.83;;;17.35;;
635;SDS011;302;50.206;8.196;2023-02-15T12:48:39;22.58;;;18.58;;
635;SDS011;302;50.206;8.196;2023-02-15T12:51:07;18.90;;;15.95;;
635;SDS011;302;50.206;8.196;2023-02-15T12:53:34;21.38;;;18.45;;
635;SDS011;302;50.206;8.196;2023-02-15T12:56:04;21.95;;;18.58;;
635;SDS011;302;50.206;8.196;2023-02-15T12:58:30;22.70;;;17.55;;
635;SDS011;302;50.206;8.196;2023-02-15T13:01:02;23.17;;;18.63;;
635;SDS011;302;50.206;8.196;2023-02-15T13:03:28;21.30;;;18.73;;
635;SDS011;302;50.206;8.196;2023-02-15T13:05:54;23.50;;;18.80;;
635;SDS011;302;50.206;8.196;2023-02-15T13:08:20;23.90;;;19.73;;
635;SDS011;302;50.206;8.196;2023-02-15T13:11:00;21.20;;;17.45;;
635;SDS011;302;50.206;8.196;2023-02-15T13:13:26;21.67;;;19.33;;
635;SDS011;302;50.206;8.196;2023-02-15T13:15:52;21.48;;;18.98;;
635;SDS011;302;50.206;8.196;2023-02-15T13:18:34;23.20;;;19.85;;
635;SDS011;302;50.206;8.196;2023-02-15T13:21:04;24.58;;;19.77;;
635;SDS011;302;50.206;8.196;2023-02-15T13:23:31;20.45;;;17.70;;
635;SDS011;302;50.206;8.196;2023-02-15T13:25:57;24.25;;;20.08;;
635;SDS011;302;50.206;8.196;2023-02-15T13:28:24;20.90;;;18.70;;
635;SDS011;302;50.206;8.196;2023-02-15T13:30:50;22.58;;;20.08;;
635;SDS011;302;50.206;8.196;2023-02-15T13:33:19;21.52;;;19.30;;
635;SDS011;302;50.206;8.196;2023-02-15T13:35:50;21.13;;;18.75;;
635;SDS011;302;50.206;8.196;2023-02-15T13:38:30;20.35;;;17.67;;
635;SDS011;302;50.206;8.196;2023-02-15T13:41:04;21.83;;;19.58;;
635;SDS011;302;50.206;8.196;2023-02-15T13:43:39;21.88;;;19.52;;
635;SDS011;302;50.206;8.196;2023-02-15T13:46:13;21.88;;;19.50;;
635;SDS011;302;50.206;8.196;2023-02-15T13:48:52;20.23;;;18.02;;
635;SDS011;302;50.206;8.196;2023-02-15T13:51:23;21.60;;;18.83;;
635;SDS011;302;50.206;8.196;2023-02-15T13:56:47;21.40;;;19.15;;
635;SDS011;302;50.206;8.196;2023-02-15T14:01:55;21.92;;;19.05;;
635;SDS011;302;50.206;8.196;2023-02-15T14:09:28;19.05;;;17.10;;
635;SDS011;302;50.206;8.196;2023-02-15T14:12:21;18.35;;;16.42;;
635;SDS011;302;50.206;8.196;2023-02-15T14:14:55;18.92;;;17.02;;
635;SDS011;302;50.206;8.196;2023-02-15T14:17:37;18.55;;;16.65;;
635;SDS011;302;50.206;8.196;2023-02-15T14:22:43;18.65;;;16.75;;
635;SDS011;302;50.206;8.196;2023-02-15T14:25:25;18.10;;;16.23;;
635;SDS011;302;50.206;8.196;2023-02-15T14:30:39;24.83;;;19.40;;
635;SDS011;302;50.206;8.196;2023-02-15T14:35:30;20.73;;;18.63;;
635;SDS011;302;50.206;8.196;2023-02-15T14:46:01;21.88;;;19.60;;
635;SDS011;302;50.206;8.196;2023-02-15T14:49:12;23.73;;;20.40;;
635;SDS011;302;50.206;8.196;2023-02-15T14:54:01;23.30;;;20.77;;
635;SDS011;302;50.206;8.196;2023-02-15T14:56:26;22.30;;;19.57;;
635;SDS011;302;50.206;8.196;2023-02-15T15:01:24;24.80;;;22.20;;
635;SDS011;302;50.206;8.196;2023-02-15T15:03:51;23.80;;;20.10;;
635;SDS011;302;50.206;8.196;2023-02-15T15:06:25;24.10;;;21.55;;
635;SDS011;302;50.206;8.196;2023-02-15T15:08:51;22.92;;;20.35;;
635;SDS011;302;50.206;8.196;2023-02-15T15:13:58;22.63;;;19.30;;
635;SDS011;302;50.206;8.196;2023-02-15T15:16:29;22.73;;;20.05;;
635;SDS011;302;50.206;8.196;2023-02-15T15:18:55;22.95;;;20.65;;
635;SDS011;302;50.206;8.196;2023-02-15T15:24:05;22.90;;;20.50;;
635;SDS011;302;50.206;8.196;2023-02-15T15:26:31;22.23;;;20.02;;
635;SDS011;302;50.206;8.196;2023-02-15T15:29:02;22.23;;;19.92;;
635;SDS011;302;50.206;8.196;2023-02-15T15:31:32;22.63;;;20.47;;
635;SDS011;302;50.206;8.196;2023-02-15T15:34:15;21.55;;;19.30;;
635;SDS011;302;50.206;8.196;2023-02-15T15:37:26;21.92;;;19.83;;
635;SDS011;302;50.206;8.196;2023-02-15T15:44:54;21.85;;;19.63;;
635;SDS011;302;50.206;8.196;2023-02-15T15:47:38;25.45;;;21.30;;
635;SDS011;302;50.206;8.196;2023-02-15T15:50:12;24.15;;;21.65;;
635;SDS011;302;50.206;8.196;2023-02-15T15:52:38;24.58;;;21.88;;
635;SDS011;302;50.206;8.196;2023-02-15T15:55:05;22.48;;;20.08;;
635;SDS011;302;50.206;8.196;2023-02-15T15:57:39;54.85;;;49.45;;
635;SDS011;302;50.206;8.196;2023-02-15T16:00:20;26.48;;;23.67;;
635;SDS011;302;50.206;8.196;2023-02-15T16:02:53;25.42;;;22.67;;
635;SDS011;302;50.206;8.196;2023-02-15T16:05:18;25.08;;;22.42;;
635;SDS011;302;50.206;8.196;2023-02-15T16:07:44;26.10;;;23.40;;
635;SDS011;302;50.206;8.196;2023-02-15T16:10:22;22.77;;;20.37;;
635;SDS011;302;50.206;8.196;2023-02-15T16:12:48;25.15;;;22.60;;
635;SDS011;302;50.206;8.196;2023-02-15T16:15:15;24.92;;;22.38;;
635;SDS011;302;50.206;8.196;2023-02-15T16:17:41;25.10;;;22.13;;
635;SDS011;302;50.206;8.196;2023-02-15T16:26:02;24.10;;;21.40;;
635;SDS011;302;50.206;8.196;2023-02-15T16:28:31;24.42;;;21.65;;
635;SDS011;302;50.206;8.196;2023-02-15T16:31:12;25.23;;;22.57;;
635;SDS011;302;50.206;8.196;2023-02-15T16:33:38;26.92;;;23.25;;
635;SDS011;302;50.206;8.196;2023-02-15T16:36:03;26.65;;;22.98;;
635;SDS011;302;50.206;8.196;2023-02-15T16:38:47;25.77;;;22.98;;
635;SDS011;302;50.206;8.196;2023-02-15T16:41:26;25.45;;;22.83;;
635;SDS011;302;50.206;8.196;2023-02-15T16:43:52;26.33;;;23.55;;
635;SDS011;302;50.206;8.196;2023-02-15T16:46:20;25.52;;;22.35;;
635;SDS011;302;50.206;8.196;2023-02-15T16:48:48;23.98;;;21.58;;
635;SDS011;302;50.206;8.196;2023-02-15T16:51:20;24.95;;;22.15;;
635;SDS011;302;50.206;8.196;2023-02-15T16:53:47;26.20;;;23.13;;
635;SDS011;302;50.206;8.196;2023-02-15T16:56:13;28.00;;;24.95;;
635;SDS011;302;50.206;8.196;2023-02-15T16:58:40;28.60;;;24.73;;
635;SDS011;302;50.206;8.196;2023-02-15T17:01:06;29.05;;;25.95;;
635;SDS011;302;50.206;8.196;2023-02-15T17:03:32;30.00;;;26.23;;
635;SDS011;302;50.206;8.196;2023-02-15T17:05:58;29.40;;;25.77;;
635;SDS011;302;50.206;8.196;2023-02-15T17:13:23;29.25;;;26.05;;
635;SDS011;302;50.206;8.196;2023-02-15T17:16:09;41.80;;;37.35;;
635;SDS011;302;50.206;8.196;2023-02-15T17:18:43;32.45;;;28.40;;
635;SDS011;302;50.206;8.196;2023-02-15T17:21:10;29.52;;;26.40;;
635;SDS011;302;50.206;8.196;2023-02-15T17:23:40;31.45;;;26.67;;
635;SDS011;302;50.206;8.196;2023-02-15T17:26:13;31.05;;;27.13;;